Time;durP1;ratioP1;P1;durP2;ratioP2;P2;SDS_P1;SDS_P2;PMS_P1;PMS_P2;Temp;Humidity;BMP_temperature;BMP_pressure;BME280_temperature;BME280_humidity;BME280_pressure;Samples;Min_cycle;Max_cycle;Signal;HPM_P1;HPM_P2
2021/12/09 00:01:41;;;;;;;;;;;17.10;99.90;;;;;;5100597;28;8016;-71
2021/12/09 00:04:10;;;;;;;;;;;16.90;99.90;;;;;;5101263;28;7558;-71
2021/12/09 00:06:37;;;;;;;;;;;17.00;99.90;;;;;;5083260;28;8039;-71
2021/12/09 00:09:07;;;;;;;;;;;17.10;99.90;;;;;;5100896;28;7899;-71
2021/12/09 00:11:42;;;;;;;;;;;17.20;99.90;;;;;;5100600;28;7770;-71
2021/12/09 00:14:09;;;;;;;;;;;17.10;99.90;;;;;;5094866;28;8018;-72
2021/12/09 00:16:35;;;;;;;;;;;17.20;99.90;;;;;;5079938;28;7963;-71
2021/12/09 00:19:01;;;;;;;;;;;17.10;99.90;;;;;;5062870;28;7604;-72
2021/12/09 00:21:27;;;;;;;;;;;17.20;99.90;;;;;;5061924;28;7986;-72
2021/12/09 00:23:53;;;;;;;;;;;17.20;99.90;;;;;;5080142;28;7745;-72
2021/12/09 00:26:20;;;;;;;;;;;17.10;99.90;;;;;;5080298;28;8058;-71
2021/12/09 00:28:46;;;;;;;;;;;17.30;99.90;;;;;;5065459;28;8109;-72
2021/12/09 00:31:14;;;;;;;;;;;17.30;99.90;;;;;;5101860;28;7569;-72
2021/12/09 00:33:44;;;;;;;;;;;17.40;99.90;;;;;;5099823;28;7942;-71
2021/12/09 00:36:10;;;;;;;;;;;17.40;99.90;;;;;;5099880;28;8250;-72
2021/12/09 00:38:40;;;;;;;;;;;17.40;99.90;;;;;;5089206;28;8199;-72
2021/12/09 00:41:07;;;;;;;;;;;17.40;99.90;;;;;;5098468;28;7983;-72
2021/12/09 00:43:34;;;;;;;;;;;17.50;99.90;;;;;;5098625;28;7926;-72
2021/12/09 00:46:00;;;;;;;;;;;17.60;99.90;;;;;;5080039;28;7562;-72
2021/12/09 00:48:26;;;;;;;;;;;17.50;99.90;;;;;;5078902;28;7847;-71
2021/12/09 00:50:55;;;;;;;;;;;17.70;99.90;;;;;;5063441;28;8051;-72
2021/12/09 00:53:22;;;;;;;;;;;17.70;99.90;;;;;;5073024;28;8830;-68
2021/12/09 00:55:48;;;;;;;;;;;17.70;99.90;;;;;;5072049;28;8397;-68
2021/12/09 00:58:14;;;;;;;;;;;17.50;99.90;;;;;;5080381;28;7582;-68
2021/12/09 01:00:40;;;;;;;;;;;17.60;99.90;;;;;;5097862;28;8000;-68
2021/12/09 01:03:07;;;;;;;;;;;17.80;99.90;;;;;;5099082;28;7968;-66
2021/12/09 01:05:33;;;;;;;;;;;17.90;99.90;;;;;;5094792;28;8411;-67
2021/12/09 01:07:59;;;;;;;;;;;18.00;99.90;;;;;;5097549;28;7896;-69
2021/12/09 01:10:26;;;;;;;;;;;18.10;99.90;;;;;;5096482;28;8208;-67
2021/12/09 01:12:53;;;;;;;;;;;18.00;99.90;;;;;;5065233;28;7572;-69
2021/12/09 01:15:19;;;;;;;;;;;18.10;99.90;;;;;;5080718;28;7987;-69
2021/12/09 01:17:46;;;;;;;;;;;18.20;99.90;;;;;;5080865;28;8042;-68
2021/12/09 01:20:13;;;;;;;;;;;18.20;99.90;;;;;;5100543;28;7817;-69
2021/12/09 01:22:43;;;;;;;;;;;18.20;99.90;;;;;;5084084;28;7773;-68
2021/12/09 01:25:10;;;;;;;;;;;18.30;99.90;;;;;;5104397;28;7560;-70
2021/12/09 01:27:39;;;;;;;;;;;18.30;99.90;;;;;;5055942;28;7959;-70
2021/12/09 01:30:12;;;;;;;;;;;18.40;99.90;;;;;;5068990;28;8134;-68
2021/12/09 01:32:42;;;;;;;;;;;18.50;99.90;;;;;;5080173;28;7859;-70
2021/12/09 01:35:09;;;;;;;;;;;18.50;99.90;;;;;;5061884;28;8020;-72
2021/12/09 01:37:36;;;;;;;;;;;18.50;99.90;;;;;;5079826;28;8026;-71
2021/12/09 01:40:04;;;;;;;;;;;18.60;99.90;;;;;;5080930;28;7554;-69
2021/12/09 01:42:32;;;;;;;;;;;18.60;99.90;;;;;;5046286;28;8528;-69
2021/12/09 01:44:58;;;;;;;;;;;18.70;99.90;;;;;;5074968;28;8177;-68
2021/12/09 01:47:25;;;;;;;;;;;18.70;99.90;;;;;;5082293;28;7953;-68
2021/12/09 01:49:51;;;;;;;;;;;18.90;99.90;;;;;;5100895;28;7753;-67
2021/12/09 01:52:17;;;;;;;;;;;18.90;99.90;;;;;;5065783;28;7581;-68
2021/12/09 01:54:43;;;;;;;;;;;19.00;99.90;;;;;;5082953;28;7910;-67
2021/12/09 01:57:10;;;;;;;;;;;19.00;99.90;;;;;;5100470;28;8184;-67
2021/12/09 01:59:36;;;;;;;;;;;19.00;99.90;;;;;;5078507;28;7857;-71
2021/12/09 02:02:03;;;;;;;;;;;19.00;99.90;;;;;;5062308;28;8089;-66
2021/12/09 02:04:29;;;;;;;;;;;19.00;99.90;;;;;;5061283;28;8885;-66
2021/12/09 02:06:55;;;;;;;;;;;19.00;99.90;;;;;;5080858;28;7592;-67
2021/12/09 02:09:22;;;;;;;;;;;19.10;99.90;;;;;;5080140;28;7821;-68
2021/12/09 02:11:48;;;;;;;;;;;19.20;99.90;;;;;;5046432;28;8319;-67
2021/12/09 02:14:14;;;;;;;;;;;19.20;99.90;;;;;;5068595;28;7939;-67
2021/12/09 02:16:41;;;;;;;;;;;19.30;99.90;;;;;;5081780;28;8006;-66
2021/12/09 02:19:10;;;;;;;;;;;19.40;99.90;;;;;;5065747;28;7570;-66
2021/12/09 02:21:36;;;;;;;;;;;19.50;99.90;;;;;;5081285;28;7992;-65
2021/12/09 02:24:04;;;;;;;;;;;19.70;99.90;;;;;;5104450;28;7831;-63
2021/12/09 02:26:37;;;;;;;;;;;19.80;99.90;;;;;;5086585;28;7956;-64
2021/12/09 02:29:04;;;;;;;;;;;19.80;99.90;;;;;;5080230;28;7949;-66
2021/12/09 02:31:30;;;;;;;;;;;19.90;99.90;;;;;;5081756;28;8115;-66
2021/12/09 02:33:57;;;;;;;;;;;20.00;99.90;;;;;;5047831;28;7554;-64
2021/12/09 02:36:23;;;;;;;;;;;20.10;99.90;;;;;;5076522;28;8988;-63
2021/12/09 02:38:50;;;;;;;;;;;20.20;99.90;;;;;;5071619;28;7856;-63
2021/12/09 02:41:17;;;;;;;;;;;20.30;99.90;;;;;;5052727;28;8007;-64
2021/12/09 02:43:47;;;;;;;;;;;20.40;99.90;;;;;;5054888;28;7941;-63
2021/12/09 02:46:15;;;;;;;;;;;20.50;99.90;;;;;;5091664;28;7690;-63
2021/12/09 02:48:41;;;;;;;;;;;20.50;99.90;;;;;;5089855;28;7879;-64
2021/12/09 02:51:07;;;;;;;;;;;20.70;99.90;;;;;;5090522;28;8682;-66
2021/12/09 02:53:34;;;;;;;;;;;20.70;99.90;;;;;;5091875;28;8042;-64
2021/12/09 02:56:00;;;;;;;;;;;20.70;99.90;;;;;;5072267;28;7902;-65
2021/12/09 02:58:26;;;;;;;;;;;20.80;99.90;;;;;;5089808;28;7864;-67
2021/12/09 03:00:59;;;;;;;;;;;20.90;99.90;;;;;;5051282;28;8167;-69
2021/12/09 03:03:25;;;;;;;;;;;20.90;99.90;;;;;;5050710;28;8193;-74
2021/12/09 03:05:57;;;;;;;;;;;21.00;99.90;;;;;;5052190;28;7974;-78
2021/12/09 03:08:34;;;;;;;;;;;21.20;99.90;;;;;;5069215;28;8159;-73
2021/12/09 03:11:04;;;;;;;;;;;21.20;99.90;;;;;;5053073;28;7927;-72
2021/12/09 03:13:30;;;;;;;;;;;21.20;99.90;;;;;;5051366;28;7836;-75
2021/12/09 03:15:57;;;;;;;;;;;21.20;99.90;;;;;;5090890;28;7529;-74
2021/12/09 03:18:23;;;;;;;;;;;21.30;99.90;;;;;;5089536;28;7960;-74
2021/12/09 03:20:49;;;;;;;;;;;21.30;99.90;;;;;;5071934;28;8096;-75
2021/12/09 03:23:15;;;;;;;;;;;21.30;99.90;;;;;;5071193;28;8943;-76
2021/12/09 03:25:42;;;;;;;;;;;21.40;99.90;;;;;;5088712;28;8121;-75
2021/12/09 03:28:11;;;;;;;;;;;21.50;99.90;;;;;;5072467;28;7543;-72
2021/12/09 03:30:40;;;;;;;;;;;21.60;99.90;;;;;;5072397;28;7811;-76
2021/12/09 03:33:07;;;;;;;;;;;21.60;99.90;;;;;;5070762;28;8054;-75
2021/12/09 03:35:33;;;;;;;;;;;21.80;99.90;;;;;;5056476;28;9117;-73
2021/12/09 03:37:59;;;;;;;;;;;21.90;99.90;;;;;;5090544;28;8120;-75
2021/12/09 03:40:25;;;;;;;;;;;21.90;99.90;;;;;;5054229;28;7982;-74
2021/12/09 03:42:52;;;;;;;;;;;21.90;99.90;;;;;;5091184;28;7537;-72
2021/12/09 03:45:18;;;;;;;;;;;22.00;99.90;;;;;;5051168;28;7842;-70
2021/12/09 03:47:44;;;;;;;;;;;22.10;99.90;;;;;;5070828;28;7931;-70
2021/12/09 03:50:11;;;;;;;;;;;22.10;99.90;;;;;;5051983;28;7863;-70
2021/12/09 03:52:37;;;;;;;;;;;22.10;99.90;;;;;;5052679;28;7981;-72
2021/12/09 03:55:05;;;;;;;;;;;22.10;99.90;;;;;;5071492;28;7522;-73
2021/12/09 03:57:32;;;;;;;;;;;22.20;99.90;;;;;;5069622;28;7771;-75
2021/12/09 03:59:58;;;;;;;;;;;22.30;99.90;;;;;;5064922;28;8180;-71
2021/12/09 04:02:24;;;;;;;;;;;22.30;99.90;;;;;;5072227;28;8187;-71
2021/12/09 04:04:50;;;;;;;;;;;22.30;99.90;;;;;;5072618;28;8315;-71
2021/12/09 04:07:17;;;;;;;;;;;22.40;99.90;;;;;;5056214;28;7532;-72
2021/12/09 04:09:43;;;;;;;;;;;22.50;99.90;;;;;;5072429;28;7909;-74
2021/12/09 04:12:10;;;;;;;;;;;22.50;99.90;;;;;;5090435;28;8273;-72
2021/12/09 04:14:36;;;;;;;;;;;22.50;99.90;;;;;;5087831;28;8004;-74
2021/12/09 04:17:02;;;;;;;;;;;22.60;99.90;;;;;;5054656;28;7856;-75
2021/12/09 04:19:29;;;;;;;;;;;22.60;99.90;;;;;;5072268;28;7907;-71
2021/12/09 04:21:55;;;;;;;;;;;22.90;99.90;;;;;;5072898;28;7529;-73
2021/12/09 04:24:22;;;;;;;;;;;22.90;99.90;;;;;;5071338;28;8077;-70
2021/12/09 04:26:49;;;;;;;;;;;23.00;99.90;;;;;;5089615;28;7783;-68
2021/12/09 04:29:16;;;;;;;;;;;23.10;99.90;;;;;;5051470;28;8045;-68
2021/12/09 04:31:42;;;;;;;;;;;23.20;99.90;;;;;;5051203;28;7810;-71
2021/12/09 04:34:08;;;;;;;;;;;23.20;99.90;;;;;;5052574;28;7541;-72
2021/12/09 04:36:35;;;;;;;;;;;23.30;99.90;;;;;;5043074;28;7971;-70
2021/12/09 04:39:01;;;;;;;;;;;23.30;99.90;;;;;;5029490;28;8025;-70
2021/12/09 04:41:27;;;;;;;;;;;23.20;99.90;;;;;;5028251;28;8173;-72
2021/12/09 04:43:53;;;;;;;;;;;23.30;99.90;;;;;;5031680;28;8050;-75
2021/12/09 04:46:20;;;;;;;;;;;23.60;99.90;;;;;;5048346;28;7541;-72
2021/12/09 04:48:46;;;;;;;;;;;23.70;99.90;;;;;;5031325;28;8063;-72
2021/12/09 04:51:12;;;;;;;;;;;23.60;99.90;;;;;;5049476;28;8050;-72
2021/12/09 04:53:39;;;;;;;;;;;23.70;99.90;;;;;;5048996;28;8070;-71
2021/12/09 04:56:05;;;;;;;;;;;23.70;99.90;;;;;;5048244;28;8021;-70
2021/12/09 04:58:31;;;;;;;;;;;24.10;99.90;;;;;;5048357;28;8048;-70
2021/12/09 05:00:58;;;;;;;;;;;24.50;99.90;;;;;;5050702;28;7538;-70
2021/12/09 05:03:24;;;;;;;;;;;24.00;99.90;;;;;;5049857;28;8002;-71
2021/12/09 05:05:51;;;;;;;;;;;24.50;99.90;;;;;;5048687;28;8200;-70
2021/12/09 05:08:18;;;;;;;;;;;24.80;99.90;;;;;;5048089;28;8069;-74
2021/12/09 05:10:57;;;;;;;;;;;25.00;99.60;;;;;;5048185;28;8876;-71
2021/12/09 05:13:24;;;;;;;;;;;25.00;99.90;;;;;;5049062;28;7537;-72
2021/12/09 05:15:50;;;;;;;;;;;24.90;99.80;;;;;;5047997;28;8299;-71
2021/12/09 05:18:17;;;;;;;;;;;24.60;99.90;;;;;;5047325;28;8465;-69
2021/12/09 05:20:43;;;;;;;;;;;25.00;99.20;;;;;;5046848;28;9304;-69
2021/12/09 05:23:10;;;;;;;;;;;24.80;99.90;;;;;;5048921;28;7975;-69
2021/12/09 05:25:36;;;;;;;;;;;24.80;99.90;;;;;;5048304;28;7929;-69
2021/12/09 05:28:02;;;;;;;;;;;25.00;99.90;;;;;;5049060;28;7560;-69
2021/12/09 05:30:39;;;;;;;;;;;25.00;99.90;;;;;;5043899;28;8248;-69
2021/12/09 05:33:06;;;;;;;;;;;25.00;99.70;;;;;;5028543;28;8095;-70
2021/12/09 05:35:33;;;;;;;;;;;25.50;99.70;;;;;;5027726;28;8002;-69
2021/12/09 05:37:59;;;;;;;;;;;25.40;99.00;;;;;;5061330;28;8291;-68
2021/12/09 05:40:25;;;;;;;;;;;25.40;99.60;;;;;;5070736;28;8028;-68
2021/12/09 05:42:52;;;;;;;;;;;25.50;98.80;;;;;;5071542;28;7526;-69
2021/12/09 05:45:18;;;;;;;;;;;25.50;98.80;;;;;;5057764;28;8188;-69
2021/12/09 05:47:44;;;;;;;;;;;25.50;99.00;;;;;;5073991;28;8119;-69
2021/12/09 05:50:11;;;;;;;;;;;25.60;99.20;;;;;;5073996;28;8283;-70
2021/12/09 05:52:37;;;;;;;;;;;26.00;98.20;;;;;;5092379;28;10660;-69
2021/12/09 05:55:04;;;;;;;;;;;26.30;97.40;;;;;;5093520;28;7545;-69
2021/12/09 05:57:30;;;;;;;;;;;26.10;96.60;;;;;;5092696;28;7747;-69
2021/12/09 05:59:56;;;;;;;;;;;25.40;97.00;;;;;;5093026;28;7761;-69
2021/12/09 06:02:22;;;;;;;;;;;25.40;96.90;;;;;;5074380;28;8019;-69
2021/12/09 06:04:49;;;;;;;;;;;25.60;94.20;;;;;;5075107;28;7760;-69
2021/12/09 06:07:15;;;;;;;;;;;25.90;94.90;;;;;;5093760;28;7528;-68
2021/12/09 06:09:41;;;;;;;;;;;25.80;92.40;;;;;;5092293;28;8172;-70
2021/12/09 06:12:08;;;;;;;;;;;26.40;92.80;;;;;;5070035;28;13820;-69
2021/12/09 06:14:34;;;;;;;;;;;26.40;93.80;;;;;;5070541;28;13842;-70
2021/12/09 06:17:00;;;;;;;;;;;26.50;93.80;;;;;;5069941;28;13844;-70
2021/12/09 06:19:27;;;;;;;;;;;26.90;93.50;;;;;;5088493;28;13781;-70
2021/12/09 06:21:53;;;;;;;;;;;26.80;92.80;;;;;;5090694;28;13866;-70
2021/12/09 06:24:21;;;;;;;;;;;26.90;92.00;;;;;;5089543;28;13850;-71
2021/12/09 06:26:47;;;;;;;;;;;26.90;91.60;;;;;;5091129;28;13856;-70
2021/12/09 06:29:13;;;;;;;;;;;27.30;90.80;;;;;;5090871;28;13835;-70
2021/12/09 06:31:39;;;;;;;;;;;27.30;91.80;;;;;;5091424;28;14523;-70
2021/12/09 06:34:06;;;;;;;;;;;26.80;92.30;;;;;;5093146;28;13812;-70
2021/12/09 06:36:32;;;;;;;;;;;27.20;92.60;;;;;;5092290;28;13827;-70
2021/12/09 06:38:58;;;;;;;;;;;27.20;91.80;;;;;;5092167;28;14088;-71
2021/12/09 06:41:24;;;;;;;;;;;27.30;92.30;;;;;;5092415;28;13843;-70
2021/12/09 06:43:51;;;;;;;;;;;27.30;91.40;;;;;;5088175;28;13842;-69
2021/12/09 06:46:17;;;;;;;;;;;26.50;92.90;;;;;;5071244;28;13805;-70
2021/12/09 06:48:43;;;;;;;;;;;26.80;93.20;;;;;;5070419;28;13877;-69
2021/12/09 06:51:09;;;;;;;;;;;27.10;93.50;;;;;;5052671;28;13825;-70
2021/12/09 06:53:35;;;;;;;;;;;27.30;92.50;;;;;;5070123;28;13828;-69
2021/12/09 06:56:02;;;;;;;;;;;27.30;92.00;;;;;;5052383;28;13836;-70
2021/12/09 06:58:28;;;;;;;;;;;27.40;92.40;;;;;;5052562;28;13803;-70
2021/12/09 07:00:54;;;;;;;;;;;27.60;92.00;;;;;;5091501;28;13781;-69
2021/12/09 07:03:21;;;;;;;;;;;27.10;92.50;;;;;;5089622;28;13788;-69
2021/12/09 07:05:48;;;;;;;;;;;26.90;92.30;;;;;;5071176;28;14455;-69
2021/12/09 07:08:15;;;;;;;;;;;26.30;92.90;;;;;;5091169;28;14462;-75
2021/12/09 07:10:41;;;;;;;;;;;27.00;92.30;;;;;;5092710;28;14529;-75
2021/12/09 07:13:08;;;;;;;;;;;27.00;92.10;;;;;;5074410;28;13869;-71
2021/12/09 07:15:34;;;;;;;;;;;26.50;92.00;;;;;;5043269;28;13761;-75
2021/12/09 07:18:00;;;;;;;;;;;26.20;93.30;;;;;;5067170;28;13815;-71
2021/12/09 07:20:30;;;;;;;;;;;26.00;95.00;;;;;;5049678;28;14474;-80
2021/12/09 07:22:56;;;;;;;;;;;26.30;93.80;;;;;;5032887;28;13890;-71
2021/12/09 07:25:23;;;;;;;;;;;27.20;92.10;;;;;;5067022;28;13800;-75
2021/12/09 07:27:50;;;;;;;;;;;27.70;91.10;;;;;;5067333;28;13904;-72
2021/12/09 07:30:16;;;;;;;;;;;27.40;91.70;;;;;;5065271;28;14474;-71
2021/12/09 07:32:45;;;;;;;;;;;27.00;92.80;;;;;;5087825;28;13769;-72
2021/12/09 07:35:12;;;;;;;;;;;27.70;91.40;;;;;;5086176;28;13776;-72
2021/12/09 07:37:38;;;;;;;;;;;27.60;91.10;;;;;;5085960;28;13790;-75
2021/12/09 07:40:05;;;;;;;;;;;27.40;91.70;;;;;;5067603;28;14596;-73
2021/12/09 07:42:31;;;;;;;;;;;27.50;91.00;;;;;;5084318;28;13081;-76
2021/12/09 07:44:57;;;;;;;;;;;27.60;91.20;;;;;;5072483;28;12970;-72
2021/12/09 07:47:24;;;;;;;;;;;27.30;92.20;;;;;;5047725;28;12971;-70
2021/12/09 07:49:50;;;;;;;;;;;27.00;93.10;;;;;;5065525;28;13041;-71
2021/12/09 07:52:16;;;;;;;;;;;27.60;91.80;;;;;;5067269;28;11871;-72
2021/12/09 07:54:42;;;;;;;;;;;27.70;91.30;;;;;;5065463;28;11189;-71
2021/12/09 07:57:08;;;;;;;;;;;27.40;92.10;;;;;;5065564;28;10760;-72
2021/12/09 07:59:35;;;;;;;;;;;27.70;91.30;;;;;;5047980;28;10644;-73
2021/12/09 08:02:01;;;;;;;;;;;27.30;92.40;;;;;;5066706;28;11247;-77
2021/12/09 08:04:27;;;;;;;;;;;27.30;92.10;;;;;;5083155;28;11431;-76
2021/12/09 08:06:54;;;;;;;;;;;27.10;91.90;;;;;;5067018;28;10723;-75
2021/12/09 08:09:20;;;;;;;;;;;27.50;91.90;;;;;;5066978;28;9821;-77
2021/12/09 08:11:47;;;;;;;;;;;27.10;92.70;;;;;;5085621;28;9692;-76
2021/12/09 08:14:16;;;;;;;;;;;27.10;92.40;;;;;;5079888;28;9638;-75
2021/12/09 08:16:42;;;;;;;;;;;27.40;91.40;;;;;;5047325;28;9372;-80
2021/12/09 08:19:09;;;;;;;;;;;27.20;91.10;;;;;;5066314;28;9534;-74
2021/12/09 08:21:37;;;;;;;;;;;26.90;92.10;;;;;;5066248;28;9074;-74
2021/12/09 08:24:04;;;;;;;;;;;26.60;93.20;;;;;;5066714;28;10305;-74
2021/12/09 08:26:30;;;;;;;;;;;26.40;94.60;;;;;;5065802;28;10443;-73
2021/12/09 08:28:56;;;;;;;;;;;26.70;92.90;;;;;;5069166;28;10974;-70
2021/12/09 08:31:23;;;;;;;;;;;26.80;93.30;;;;;;5084810;28;9682;-73
2021/12/09 08:33:49;;;;;;;;;;;27.40;91.40;;;;;;5067190;28;9959;-70
2021/12/09 08:36:15;;;;;;;;;;;27.00;92.20;;;;;;5084454;28;9716;-69
2021/12/09 08:38:41;;;;;;;;;;;26.80;93.20;;;;;;5066114;28;10544;-69
2021/12/09 08:41:11;;;;;;;;;;;26.70;93.80;;;;;;5084612;28;10127;-69
2021/12/09 08:43:37;;;;;;;;;;;26.80;92.60;;;;;;5082953;28;10466;-69
2021/12/09 08:46:04;;;;;;;;;;;26.80;91.80;;;;;;5045988;28;12314;-69
2021/12/09 08:48:30;;;;;;;;;;;26.70;92.90;;;;;;5045074;28;12526;-69
2021/12/09 08:50:56;;;;;;;;;;;26.70;92.70;;;;;;5063218;28;13067;-68
2021/12/09 08:53:23;;;;;;;;;;;26.70;92.70;;;;;;5044977;28;13220;-69
2021/12/09 08:55:49;;;;;;;;;;;26.80;92.50;;;;;;5062107;28;13332;-68
2021/12/09 08:58:15;;;;;;;;;;;26.80;91.60;;;;;;5044887;28;11960;-68
2021/12/09 09:00:42;;;;;;;;;;;26.80;92.40;;;;;;5061676;28;12973;-69
2021/12/09 09:03:08;;;;;;;;;;;26.80;92.80;;;;;;5063757;28;13433;-69
2021/12/09 09:05:35;;;;;;;;;;;26.70;92.60;;;;;;5081378;28;13522;-69
2021/12/09 09:08:01;;;;;;;;;;;26.90;92.50;;;;;;5082089;28;13344;-70
2021/12/09 09:10:30;;;;;;;;;;;26.90;92.70;;;;;;5063316;28;13257;-70
2021/12/09 09:12:57;;;;;;;;;;;26.70;93.10;;;;;;5081427;28;13220;-70
2021/12/09 09:15:23;;;;;;;;;;;26.50;93.10;;;;;;5064095;28;13451;-70
2021/12/09 09:17:50;;;;;;;;;;;26.40;93.50;;;;;;5060193;28;13325;-70
2021/12/09 09:20:16;;;;;;;;;;;26.30;93.70;;;;;;5042844;28;13450;-73
2021/12/09 09:22:43;;;;;;;;;;;26.30;94.00;;;;;;5060237;28;14107;-74
2021/12/09 09:25:10;;;;;;;;;;;26.20;94.60;;;;;;5060870;28;13288;-74
2021/12/09 09:27:37;;;;;;;;;;;26.10;95.40;;;;;;5059467;28;13350;-74
2021/12/09 09:30:06;;;;;;;;;;;26.00;95.80;;;;;;5072527;28;13457;-74
2021/12/09 09:32:33;;;;;;;;;;;26.00;96.50;;;;;;5060112;28;13310;-73
2021/12/09 09:34:59;;;;;;;;;;;26.00;96.90;;;;;;5060457;28;13427;-73
2021/12/09 09:37:25;;;;;;;;;;;26.00;96.90;;;;;;5077716;28;13291;-72
2021/12/09 09:39:52;;;;;;;;;;;26.00;97.10;;;;;;5044415;28;13248;-73
2021/12/09 09:44:59;;;;;;;;;;;26.10;97.20;;;;;;5062429;28;13369;-74
2021/12/09 09:47:26;;;;;;;;;;;26.20;96.70;;;;;;5060367;28;13331;-73
2021/12/09 09:49:52;;;;;;;;;;;26.20;96.90;;;;;;5078184;28;13427;-74
2021/12/09 09:52:18;;;;;;;;;;;26.20;97.60;;;;;;5078421;28;13276;-73
2021/12/09 09:54:44;;;;;;;;;;;26.20;97.90;;;;;;5060558;28;13331;-73
2021/12/09 09:57:11;;;;;;;;;;;26.10;97.00;;;;;;5060310;28;13303;-73
2021/12/09 09:59:39;;;;;;;;;;;26.10;96.20;;;;;;5078692;28;14176;-73
2021/12/09 10:02:06;;;;;;;;;;;26.10;96.60;;;;;;5078151;28;13328;-73
2021/12/09 10:04:37;;;;;;;;;;;26.10;95.90;;;;;;5078465;28;13304;-72
2021/12/09 10:07:04;;;;;;;;;;;26.00;96.50;;;;;;5062394;28;14268;-72
2021/12/09 10:09:30;;;;;;;;;;;26.00;96.80;;;;;;5079062;28;13463;-72
2021/12/09 10:11:57;;;;;;;;;;;25.90;96.70;;;;;;5079869;28;13469;-73
2021/12/09 10:14:24;;;;;;;;;;;25.90;96.40;;;;;;5072384;28;13356;-72
2021/12/09 10:17:09;;;;;;;;;;;25.90;96.80;;;;;;5060074;28;13306;-72
2021/12/09 10:19:37;;;;;;;;;;;25.80;97.80;;;;;;5042237;28;13184;-72
2021/12/09 10:22:08;;;;;;;;;;;25.70;97.80;;;;;;5043011;28;13260;-72
2021/12/09 10:24:34;;;;;;;;;;;25.70;99.00;;;;;;5060365;28;13207;-72
2021/12/09 10:27:00;;;;;;;;;;;25.70;98.60;;;;;;5042805;28;13236;-73
2021/12/09 10:29:31;;;;;;;;;;;25.60;99.10;;;;;;5050843;28;13232;-73
2021/12/09 10:32:02;;;;;;;;;;;25.60;97.80;;;;;;5079994;28;13242;-72
2021/12/09 10:34:45;;;;;;;;;;;25.50;97.40;;;;;;5061622;28;13410;-72
2021/12/09 10:37:16;;;;;;;;;;;25.50;97.50;;;;;;5054658;28;13605;-73
2021/12/09 10:39:43;;;;;;;;;;;25.40;97.70;;;;;;5036374;28;13758;-72
2021/12/09 10:42:29;;;;;;;;;;;25.30;97.70;;;;;;5039984;28;13874;-71
2021/12/09 10:45:13;;;;;;;;;;;25.20;97.70;;;;;;5044070;28;13908;-71
2021/12/09 10:53:16;;;;;;;;;;;24.70;99.90;;;;;;5030630;28;14057;-71
2021/12/09 10:55:42;;;;;;;;;;;24.60;99.90;;;;;;5045020;28;13899;-71
2021/12/09 10:58:09;;;;;;;;;;;24.60;99.90;;;;;;5045382;28;14064;-72
2021/12/09 11:00:37;;;;;;;;;;;24.50;99.90;;;;;;5025273;28;13953;-72
2021/12/09 11:03:11;;;;;;;;;;;24.50;99.70;;;;;;5024589;28;13990;-72
2021/12/09 11:05:38;;;;;;;;;;;24.50;99.90;;;;;;5021613;28;13868;-72
2021/12/09 11:08:15;;;;;;;;;;;24.30;99.90;;;;;;5021668;28;13749;-72
2021/12/09 11:10:46;;;;;;;;;;;24.30;99.90;;;;;;5021664;28;14355;-72
2021/12/09 11:13:13;;;;;;;;;;;24.30;99.90;;;;;;5021422;28;14354;-73
2021/12/09 11:15:45;;;;;;;;;;;24.20;99.90;;;;;;5030982;28;13835;-72
2021/12/09 11:18:30;;;;;;;;;;;24.10;99.90;;;;;;5042108;28;13995;-71
2021/12/09 11:20:57;;;;;;;;;;;24.10;99.90;;;;;;5042717;28;13907;-72
2021/12/09 11:23:24;;;;;;;;;;;24.00;99.90;;;;;;5040189;28;13864;-72
2021/12/09 11:25:51;;;;;;;;;;;24.00;99.90;;;;;;5040966;28;14364;-72
2021/12/09 11:28:17;;;;;;;;;;;23.80;99.90;;;;;;5039932;28;13497;-72
2021/12/09 11:31:05;;;;;;;;;;;23.70;99.90;;;;;;5040310;28;13418;-72
2021/12/09 11:33:33;;;;;;;;;;;23.70;99.90;;;;;;5038818;28;13539;-71
2021/12/09 11:36:01;;;;;;;;;;;23.70;99.90;;;;;;5039572;28;13389;-72
2021/12/09 11:38:52;;;;;;;;;;;23.70;99.90;;;;;;5069163;28;13370;-71
2021/12/09 11:41:32;;;;;;;;;;;23.70;99.90;;;;;;5079050;28;13203;-71
2021/12/09 11:43:58;;;;;;;;;;;23.80;99.90;;;;;;5056917;28;13286;-71
2021/12/09 11:46:25;;;;;;;;;;;23.70;99.90;;;;;;5059417;28;14091;-69
2021/12/09 11:48:51;;;;;;;;;;;23.60;99.90;;;;;;5041675;28;13292;-70
2021/12/09 11:51:17;;;;;;;;;;;23.50;99.90;;;;;;5039952;28;13344;-69
2021/12/09 11:53:45;;;;;;;;;;;23.40;99.90;;;;;;5039072;28;13409;-70
2021/12/09 11:56:27;;;;;;;;;;;23.30;99.90;;;;;;5038004;28;13721;-70
2021/12/09 12:13:09;;;;;;;;;;;23.10;99.90;;;;;;5075063;28;14662;-71
2021/12/09 12:26:57;;;;;;;;;;;22.90;99.90;;;;;;5074512;28;13806;-70
2021/12/09 12:30:01;;;;;;;;;;;22.90;99.90;;;;;;5074592;28;13841;-70
2021/12/09 12:38:12;;;;;;;;;;;22.80;99.90;;;;;;5044664;28;13996;-71
2021/12/09 12:40:47;;;;;;;;;;;22.80;99.90;;;;;;5033516;28;13894;-71
2021/12/09 12:43:26;;;;;;;;;;;22.70;99.90;;;;;;5034977;28;13951;-71
2021/12/09 12:46:04;;;;;;;;;;;22.80;99.90;;;;;;5014859;28;14054;-71
2021/12/09 12:51:19;;;;;;;;;;;22.50;99.90;;;;;;5014527;28;13968;-70
2021/12/09 12:53:47;;;;;;;;;;;22.50;99.90;;;;;;5014833;28;13961;-70
2021/12/09 12:56:13;;;;;;;;;;;22.30;99.90;;;;;;5013609;28;14634;-70
2021/12/09 12:58:57;;;;;;;;;;;22.30;99.90;;;;;;5014967;28;13922;-70
2021/12/09 13:01:24;;;;;;;;;;;22.40;99.90;;;;;;5033472;28;13901;-68
2021/12/09 13:03:54;;;;;;;;;;;22.40;99.90;;;;;;4996700;28;13906;-71
2021/12/09 13:06:43;;;;;;;;;;;22.40;99.90;;;;;;5040123;28;13886;-68
2021/12/09 13:09:24;;;;;;;;;;;22.50;99.90;;;;;;5055797;28;8123;-70
2021/12/09 13:12:00;;;;;;;;;;;22.50;99.90;;;;;;5055917;28;9171;-69
2021/12/09 13:14:33;;;;;;;;;;;22.50;99.90;;;;;;5062914;28;8785;-67
2021/12/09 13:17:07;;;;;;;;;;;22.50;99.90;;;;;;5036095;28;8458;-72
2021/12/09 13:19:39;;;;;;;;;;;22.50;99.90;;;;;;5026027;28;8245;-71
2021/12/09 13:22:11;;;;;;;;;;;22.60;99.90;;;;;;5050698;28;8286;-70
2021/12/09 13:24:40;;;;;;;;;;;22.50;99.90;;;;;;5035524;28;8396;-71
2021/12/09 13:27:11;;;;;;;;;;;22.40;99.90;;;;;;5035525;28;8778;-70
2021/12/09 13:35:59;;;;;;;;;;;22.20;99.90;;;;;;5049958;28;9039;-69
2021/12/09 13:38:33;;;;;;;;;;;22.10;99.90;;;;;;5078506;28;9042;-70
2021/12/09 13:49:00;;;;;;;;;;;22.00;99.90;;;;;;5075016;28;8378;-70
2021/12/09 13:54:23;;;;;;;;;;;21.90;99.90;;;;;;5074292;28;9844;-70
2021/12/09 13:56:49;;;;;;;;;;;21.70;99.90;;;;;;5074158;28;8675;-70
2021/12/09 13:59:16;;;;;;;;;;;21.60;99.90;;;;;;5062448;28;8910;-70
2021/12/09 14:01:45;;;;;;;;;;;21.80;99.90;;;;;;5093868;28;8331;-70
2021/12/09 14:04:12;;;;;;;;;;;21.90;99.90;;;;;;5077187;28;8222;-70
2021/12/09 14:07:09;;;;;;;;;;;21.70;99.90;;;;;;5075912;28;8722;-70
2021/12/09 14:09:37;;;;;;;;;;;21.70;99.90;;;;;;5075490;28;8159;-70
2021/12/09 14:12:04;;;;;;;;;;;21.70;99.90;;;;;;5076063;28;8322;-70
2021/12/09 14:15:03;;;;;;;;;;;21.70;99.90;;;;;;5071924;28;8179;-70
2021/12/09 14:17:22;;;;;;;;;;;21.70;99.90;;;;;;5074259;28;8480;-70
2021/12/09 14:20:06;;;;;;;;;;;21.70;99.90;;;;;;5078089;28;10326;-70
2021/12/09 14:22:39;;;;;;;;;;;21.60;99.90;;;;;;5062848;28;9053;-70
2021/12/09 14:25:12;;;;;;;;;;;21.60;99.90;;;;;;5077216;28;8187;-70
2021/12/09 14:27:38;;;;;;;;;;;21.50;99.90;;;;;;5077978;28;8585;-70
2021/12/09 14:30:08;;;;;;;;;;;21.60;99.90;;;;;;5091389;28;8363;-70
2021/12/09 14:32:34;;;;;;;;;;;21.60;99.90;;;;;;5079501;28;8919;-70
2021/12/09 14:35:01;;;;;;;;;;;21.60;99.90;;;;;;5098023;28;8329;-70
2021/12/09 14:37:27;;;;;;;;;;;21.50;99.90;;;;;;5097409;28;8237;-69
2021/12/09 14:40:04;;;;;;;;;;;21.50;99.90;;;;;;5098592;28;9015;-70
2021/12/09 14:42:34;;;;;;;;;;;21.50;99.90;;;;;;5079606;28;8389;-70
2021/12/09 14:45:01;;;;;;;;;;;21.50;99.90;;;;;;5085206;28;8474;-70
2021/12/09 14:47:27;;;;;;;;;;;21.50;99.90;;;;;;5077460;28;8425;-70
2021/12/09 14:49:55;;;;;;;;;;;21.60;99.90;;;;;;5077433;28;8406;-70
2021/12/09 14:52:28;;;;;;;;;;;21.60;99.90;;;;;;5077988;28;8262;-69
2021/12/09 14:55:28;;;;;;;;;;;21.60;99.90;;;;;;5077847;28;8429;-70
2021/12/09 14:58:09;;;;;;;;;;;21.60;99.90;;;;;;5024060;28;8391;-70
2021/12/09 15:00:41;;;;;;;;;;;21.50;99.90;;;;;;5093921;28;8335;-70
2021/12/09 15:03:08;;;;;;;;;;;21.40;99.90;;;;;;5098260;28;8253;-70
2021/12/09 15:05:49;;;;;;;;;;;21.50;99.90;;;;;;5097116;28;8600;-70
2021/12/09 15:08:20;;;;;;;;;;;21.50;99.90;;;;;;5097894;28;8424;-70
2021/12/09 15:10:48;;;;;;;;;;;21.50;99.90;;;;;;5097922;28;8179;-70
2021/12/09 15:13:14;;;;;;;;;;;21.50;99.90;;;;;;5079642;28;8393;-70
2021/12/09 15:15:40;;;;;;;;;;;21.50;99.90;;;;;;5078732;28;8272;-70
2021/12/09 15:18:07;;;;;;;;;;;21.40;99.90;;;;;;5077321;28;8640;-70
2021/12/09 15:20:38;;;;;;;;;;;21.40;99.90;;;;;;5059071;28;8427;-70
2021/12/09 15:23:14;;;;;;;;;;;21.30;99.90;;;;;;5076093;28;10779;-70
2021/12/09 15:25:41;;;;;;;;;;;21.30;99.90;;;;;;5076476;28;8390;-70
2021/12/09 15:28:14;;;;;;;;;;;21.20;99.90;;;;;;5077707;28;8227;-70
2021/12/09 15:30:56;;;;;;;;;;;21.20;99.90;;;;;;5093733;28;8583;-70